createdAt,value
2023-03-20T00:00:41.314Z,98824.61
2023-03-20T00:03:55.967Z,98822.95
2023-03-20T00:07:10.092Z,98814.63
2023-03-20T00:10:23.978Z,98822.16
2023-03-20T00:13:36.082Z,98812.98
2023-03-20T00:16:51.107Z,98820.55
2023-03-20T00:20:03.376Z,98821.39
2023-03-20T00:23:15.392Z,98817.00
2023-03-20T00:26:30.105Z,98818.13
2023-03-20T00:29:42.671Z,98817.89
2023-03-20T00:32:55.244Z,98813.30
2023-03-20T00:36:07.733Z,98808.42
2023-03-20T00:39:19.984Z,98813.45
2023-03-20T00:42:32.239Z,98812.20
2023-03-20T00:45:44.403Z,98812.91
2023-03-20T00:48:57.034Z,98811.50
2023-03-20T00:52:12.902Z,98808.70
2023-03-20T00:55:28.192Z,98802.52
2023-03-20T00:58:40.416Z,98800.78
2023-03-20T01:01:52.959Z,98804.91
2023-03-20T01:05:05.917Z,98810.15
2023-03-20T01:08:27.619Z,98815.72
2023-03-20T01:11:40.291Z,98813.12
2023-03-20T01:14:56.801Z,98808.55
2023-03-20T01:18:09.095Z,98801.59
2023-03-20T01:21:21.492Z,98808.34
2023-03-20T01:24:33.543Z,98804.67
2023-03-20T01:27:48.474Z,98804.67
2023-03-20T01:31:00.801Z,98807.69
2023-03-20T01:34:16.566Z,98803.40
2023-03-20T01:37:33.381Z,98802.23
2023-03-20T01:40:55.476Z,98805.50
2023-03-20T01:44:16.302Z,98808.16
2023-03-20T01:47:30.608Z,98809.41
2023-03-20T01:50:45.352Z,98806.53
2023-03-20T01:54:03.208Z,98808.68
2023-03-20T01:57:21.697Z,98807.50
2023-03-20T02:00:34.486Z,98808.93
2023-03-20T02:03:52.003Z,98813.16
2023-03-20T02:07:06.586Z,98810.27
2023-03-20T02:10:25.229Z,98813.27
2023-03-20T02:13:45.693Z,98806.32
2023-03-20T02:16:59.172Z,98811.34
2023-03-20T02:20:22.332Z,98813.52
2023-03-20T02:24:21.426Z,98815.19
2023-03-20T02:27:43.140Z,98810.85
2023-03-20T02:31:21.507Z,98816.26
2023-03-20T02:35:31.649Z,98816.61
2023-03-20T02:39:06.714Z,98807.36
2023-03-20T02:42:26.712Z,98813.02
2023-03-20T02:45:45.922Z,98815.66
2023-03-20T02:49:05.118Z,98808.44
2023-03-20T02:52:23.062Z,98805.07
2023-03-20T02:55:42.026Z,98809.16
2023-03-20T02:59:00.678Z,98809.16
2023-03-20T03:02:17.390Z,98807.23
2023-03-20T03:05:35.226Z,98798.94
2023-03-20T03:08:52.616Z,98794.38
2023-03-20T03:12:09.683Z,98802.88
2023-03-20T03:15:27.735Z,98796.88
2023-03-20T03:18:44.129Z,98797.34
2023-03-20T03:21:56.913Z,98797.56
2023-03-20T03:25:11.236Z,98791.56
2023-03-20T03:28:30.509Z,98791.22
2023-03-20T03:31:44.015Z,98788.97
2023-03-20T03:34:56.741Z,98783.06
2023-03-20T03:38:14.504Z,98788.25
2023-03-20T03:41:33.439Z,98793.98
2023-03-20T03:44:53.216Z,98792.28
2023-03-20T03:48:10.706Z,98781.86
2023-03-20T03:51:27.666Z,98791.68
2023-03-20T03:54:48.762Z,98791.80
2023-03-20T03:58:16.291Z,98795.63
2023-03-20T04:01:35.036Z,98791.02
2023-03-20T04:04:52.509Z,98797.73
2023-03-20T04:08:08.561Z,98789.30
2023-03-20T04:11:25.320Z,98796.27
2023-03-20T04:14:37.623Z,98799.23
2023-03-20T04:17:50.383Z,98802.15
2023-03-20T04:21:03.315Z,98797.61
2023-03-20T04:24:16.150Z,98802.55
2023-03-20T04:27:28.864Z,98793.66
2023-03-20T04:30:41.478Z,98797.39
2023-03-20T04:33:53.667Z,98796.55
2023-03-20T04:37:14.173Z,98805.91
2023-03-20T04:40:31.699Z,98801.69
2023-03-20T04:43:44.551Z,98804.45
2023-03-20T04:46:56.690Z,98804.94
2023-03-20T04:50:11.897Z,98806.27
2023-03-20T04:53:27.077Z,98806.66
2023-03-20T04:56:39.426Z,98800.92
2023-03-20T04:59:53.912Z,98802.88
2023-03-20T05:03:06.378Z,98809.09
2023-03-20T05:06:18.974Z,98806.70
2023-03-20T05:09:32.134Z,98801.52
2023-03-20T05:12:47.978Z,98802.88
2023-03-20T05:16:18.924Z,98812.00
2023-03-20T05:19:33.094Z,98806.01
2023-03-20T05:22:47.832Z,98811.33
2023-03-20T05:26:18.336Z,98807.52
2023-03-20T05:29:41.556Z,98821.67
2023-03-20T05:32:58.172Z,98816.86
2023-03-20T05:36:16.341Z,98819.25
2023-03-20T05:39:42.808Z,98818.27
2023-03-20T05:42:59.978Z,98818.50
2023-03-20T05:46:14.914Z,98817.75
2023-03-20T05:49:34.976Z,98817.83
2023-03-20T05:52:58.432Z,98815.41
2023-03-20T05:56:16.735Z,98816.70
2023-03-20T05:59:30.954Z,98811.63
2023-03-20T06:02:48.477Z,98818.34
2023-03-20T06:06:13.518Z,98810.61
2023-03-20T06:09:26.575Z,98811.20
2023-03-20T06:12:39.030Z,98810.85
2023-03-20T06:15:51.772Z,98821.91
2023-03-20T06:19:04.162Z,98822.48
2023-03-20T06:22:16.735Z,98821.27
2023-03-20T06:25:28.937Z,98826.16
2023-03-20T06:28:41.023Z,98831.45
2023-03-20T06:31:53.700Z,98830.75
2023-03-20T06:35:11.940Z,98831.39
2023-03-20T06:38:25.071Z,98823.77
2023-03-20T06:41:37.957Z,98828.28
2023-03-20T06:44:52.034Z,98822.30
2023-03-20T06:48:06.370Z,98819.63
2023-03-20T06:51:18.579Z,98828.98
2023-03-20T06:54:32.983Z,98824.47
2023-03-20T06:57:46.002Z,98828.09
2023-03-20T07:01:00.205Z,98833.06
2023-03-20T07:04:12.964Z,98834.75
2023-03-20T07:07:26.920Z,98840.07
2023-03-20T07:10:39.410Z,98826.81
2023-03-20T07:13:52.044Z,98833.66
2023-03-20T07:17:06.540Z,98829.09
2023-03-20T07:20:20.770Z,98834.95
2023-03-20T07:23:34.683Z,98830.25
2023-03-20T07:26:47.286Z,98836.78
2023-03-20T07:29:59.844Z,98819.59
2023-03-20T07:33:12.179Z,98812.38
2023-03-20T07:36:25.477Z,98824.97
2023-03-20T07:39:37.752Z,98821.13
2023-03-20T07:43:10.472Z,98808.63
2023-03-20T07:46:41.201Z,98811.24
2023-03-20T07:49:53.695Z,98816.52
2023-03-20T07:53:06.066Z,98831.34
2023-03-20T07:56:19.079Z,98816.30
2023-03-20T07:59:31.143Z,98824.31
2023-03-20T08:02:43.693Z,98826.22
2023-03-20T08:05:56.269Z,98820.63
2023-03-20T08:09:09.283Z,98827.09
2023-03-20T08:12:21.601Z,98827.26
2023-03-20T08:15:33.858Z,98827.59
2023-03-20T08:18:46.720Z,98833.23
2023-03-20T08:21:58.865Z,98824.95
2023-03-20T08:25:13.156Z,98824.03
2023-03-20T08:28:44.110Z,98830.39
2023-03-20T08:31:40.747Z,98824.73
2023-03-20T08:34:52.804Z,98826.73
2023-03-20T08:38:05.114Z,98817.80
2023-03-20T08:41:17.204Z,98818.73
2023-03-20T08:44:29.462Z,98817.01
2023-03-20T08:47:41.724Z,98818.31
2023-03-20T08:50:53.931Z,98810.89
2023-03-20T08:54:06.076Z,98821.23
2023-03-20T08:57:20.792Z,98809.84
2023-03-20T09:00:33.400Z,98817.55
2023-03-20T09:03:45.696Z,98813.41
2023-03-20T09:07:01.005Z,98810.08
2023-03-20T09:10:16.094Z,98807.77
2023-03-20T09:13:28.402Z,98804.23
2023-03-20T09:16:40.574Z,98805.66
2023-03-20T09:19:52.829Z,98796.66
2023-03-20T09:23:05.506Z,98784.90
2023-03-20T09:26:33.676Z,98790.81
2023-03-20T09:29:46.755Z,98781.15
2023-03-20T09:32:59.462Z,98796.83
2023-03-20T09:36:31.073Z,98788.42
2023-03-20T09:39:44.130Z,98785.53
2023-03-20T09:43:04.344Z,98779.72
2023-03-20T09:46:27.898Z,98791.52
2023-03-20T09:49:52.860Z,98796.39
2023-03-20T09:53:14.767Z,98808.81
2023-03-20T09:56:31.822Z,98822.87
2023-03-20T09:59:44.453Z,98822.13
2023-03-20T10:03:01.084Z,98818.20
2023-03-20T10:06:18.069Z,98824.50
2023-03-20T10:09:31.728Z,98824.56
2023-03-20T10:13:02.425Z,98820.72
2023-03-20T10:16:21.753Z,98818.04
2023-03-20T10:19:37.197Z,98819.08
2023-03-20T10:22:53.129Z,98823.83
2023-03-20T10:26:10.503Z,98816.97
2023-03-20T10:29:31.795Z,98820.14
2023-03-20T10:32:49.405Z,98808.03
2023-03-20T10:36:12.447Z,98801.67
2023-03-20T10:39:34.032Z,98811.98
2023-03-20T10:42:51.448Z,98789.09
2023-03-20T10:46:10.534Z,98800.57
2023-03-20T10:49:29.135Z,98786.41
2023-03-20T10:52:45.060Z,98789.16
2023-03-20T10:55:59.986Z,98792.67
2023-03-20T10:59:18.481Z,98776.86
2023-03-20T11:02:34.737Z,98769.56
2023-03-20T11:06:02.208Z,98776.69
2023-03-20T11:09:02.045Z,98774.16
2023-03-20T11:12:23.978Z,98781.58
2023-03-20T11:15:39.581Z,98787.08
2023-03-20T11:18:53.959Z,98779.84
2023-03-20T11:22:13.022Z,98773.23
2023-03-20T11:25:39.569Z,98766.54
2023-03-20T11:28:59.503Z,98762.72
2023-03-20T11:32:24.428Z,98776.36
2023-03-20T11:35:37.871Z,98773.16
2023-03-20T11:38:54.320Z,98780.32
2023-03-20T11:42:08.415Z,98779.19
2023-03-20T11:45:25.847Z,98779.69
2023-03-20T11:48:47.010Z,98781.53
2023-03-20T11:52:00.700Z,98769.91
2023-03-20T11:55:28.587Z,98768.14
2023-03-20T11:58:43.436Z,98774.30
2023-03-20T12:01:59.138Z,98769.98
2023-03-20T12:05:33.522Z,98769.16
2023-03-20T12:08:50.175Z,98755.61
2023-03-20T12:12:05.763Z,98754.16
2023-03-20T12:15:26.494Z,98747.97
2023-03-20T12:18:43.083Z,98741.84
2023-03-20T12:22:03.224Z,98741.41
2023-03-20T12:25:25.823Z,98741.20
2023-03-20T12:28:42.892Z,98727.97
2023-03-20T12:32:00.541Z,98727.81
2023-03-20T12:35:17.356Z,98734.83
2023-03-20T12:38:34.131Z,98732.84
2023-03-20T12:41:57.230Z,98732.38
2023-03-20T12:45:16.034Z,98727.33
2023-03-20T12:48:49.814Z,98720.53
2023-03-20T12:52:11.600Z,98722.53
2023-03-20T12:55:47.834Z,98726.59
2023-03-20T12:59:05.064Z,98733.97
2023-03-20T13:02:30.784Z,98725.84
2023-03-20T13:05:53.916Z,98731.69
2023-03-20T13:09:26.631Z,98735.00
2023-03-20T13:12:51.750Z,98735.69
2023-03-20T13:16:16.121Z,98726.84
2023-03-20T13:19:36.547Z,98719.71
2023-03-20T13:22:59.249Z,98721.68
2023-03-20T13:26:32.669Z,98721.12
2023-03-20T13:29:52.696Z,98723.30
2023-03-20T13:33:12.944Z,98725.39
2023-03-20T13:36:40.746Z,98715.32
2023-03-20T13:40:02.218Z,98715.08
2023-03-20T13:43:25.663Z,98710.10
2023-03-20T13:46:43.826Z,98708.17
2023-03-20T13:50:03.796Z,98711.78
2023-03-20T13:53:26.158Z,98701.79
2023-03-20T13:56:47.580Z,98702.54
2023-03-20T14:00:12.593Z,98713.01
2023-03-20T14:03:32.147Z,98705.61
2023-03-20T14:06:59.176Z,98709.56
2023-03-20T14:10:46.786Z,98705.85
2023-03-20T14:14:02.747Z,98705.20
2023-03-20T14:17:27.836Z,98709.66
2023-03-20T14:20:44.234Z,98710.09
2023-03-20T14:24:04.956Z,98708.49
2023-03-20T14:27:42.842Z,98704.38
2023-03-20T14:30:51.717Z,98709.36
2023-03-20T14:34:16.332Z,98709.91
2023-03-20T14:37:53.346Z,98708.17
2023-03-20T14:41:12.870Z,98706.06
2023-03-20T14:44:38.770Z,98705.11
2023-03-20T14:47:58.242Z,98711.47
2023-03-20T14:51:32.286Z,98716.02
2023-03-20T14:54:46.319Z,98718.95
2023-03-20T14:57:59.147Z,98716.82
2023-03-20T15:01:14.081Z,98716.48
2023-03-20T15:04:43.882Z,98712.69
2023-03-20T15:07:56.128Z,98715.06
2023-03-20T15:11:13.567Z,98717.73
2023-03-20T15:14:30.689Z,98713.07
2023-03-20T15:17:47.907Z,98716.25
2023-03-20T15:21:01.950Z,98720.41
2023-03-20T15:24:23.152Z,98719.07
2023-03-20T15:27:37.307Z,98711.17
2023-03-20T15:30:53.652Z,98702.49
2023-03-20T15:34:08.781Z,98707.03
2023-03-20T15:37:25.890Z,98712.51
2023-03-20T15:40:50.516Z,98716.69
2023-03-20T15:43:56.813Z,98709.66
2023-03-20T15:47:18.428Z,98719.07
2023-03-20T15:50:30.743Z,98718.43
2023-03-20T15:53:46.257Z,98721.11
2023-03-20T15:57:02.430Z,98726.11
2023-03-20T16:00:22.094Z,98719.29
2023-03-20T16:03:38.343Z,98730.25
2023-03-20T16:07:00.033Z,98735.45
2023-03-20T16:10:22.975Z,98734.25
2023-03-20T16:13:40.024Z,98732.92
2023-03-20T16:16:56.429Z,98741.46
2023-03-20T16:20:10.710Z,98743.29
2023-03-20T16:23:34.019Z,98744.45
2023-03-20T16:26:49.905Z,98739.28
2023-03-20T16:30:03.114Z,98742.80
2023-03-20T16:33:20.533Z,98748.11
2023-03-20T16:36:39.026Z,98751.77
2023-03-20T16:39:51.068Z,98750.92
2023-03-20T16:43:05.592Z,98750.92
2023-03-20T16:46:23.593Z,98748.42
2023-03-20T16:50:23.645Z,98748.77
2023-03-20T16:53:44.814Z,98753.94
2023-03-20T16:57:04.038Z,98751.09
2023-03-20T17:00:32.851Z,98753.61
2023-03-20T17:03:52.866Z,98746.08
2023-03-20T17:07:10.027Z,98750.08
2023-03-20T17:10:30.813Z,98741.40
2023-03-20T17:13:43.189Z,98740.05
2023-03-20T17:16:59.536Z,98751.03
2023-03-20T17:20:16.819Z,98735.87
2023-03-20T17:23:30.038Z,98741.20
2023-03-20T17:26:43.000Z,98736.54
2023-03-20T17:29:56.307Z,98738.36
2023-03-20T17:33:13.819Z,98741.38
2023-03-20T17:36:30.656Z,98746.71
2023-03-20T17:39:42.948Z,98750.53
2023-03-20T17:42:55.667Z,98750.34
2023-03-20T17:46:08.330Z,98757.00
2023-03-20T17:49:25.115Z,98754.60
2023-03-20T17:52:37.211Z,98759.56
2023-03-20T17:55:49.484Z,98760.41
2023-03-20T17:59:01.790Z,98765.88
2023-03-20T18:02:14.861Z,98752.36
2023-03-20T18:05:28.644Z,98750.67
2023-03-20T18:08:40.968Z,98753.13
2023-03-20T18:11:52.995Z,98756.27
2023-03-20T18:15:05.680Z,98762.06
2023-03-20T18:18:17.740Z,98763.02
2023-03-20T18:21:30.087Z,98767.30
2023-03-20T18:24:45.372Z,98768.55
2023-03-20T18:27:57.848Z,98763.16
2023-03-20T18:31:10.602Z,98775.44
2023-03-20T18:34:23.321Z,98774.98
2023-03-20T18:37:35.780Z,98774.23
2023-03-20T18:40:48.224Z,98778.19
2023-03-20T18:44:00.410Z,98786.18
2023-03-20T18:47:13.580Z,98779.20
2023-03-20T18:50:34.476Z,98774.32
2023-03-20T18:53:47.160Z,98779.52
2023-03-20T18:57:00.909Z,98770.52
2023-03-20T19:00:25.608Z,98772.34
2023-03-20T19:03:39.501Z,98768.19
2023-03-20T19:06:51.790Z,98768.02
2023-03-20T19:10:04.065Z,98772.87
2023-03-20T19:13:18.824Z,98777.38
2023-03-20T19:16:35.146Z,98771.73
2023-03-20T19:19:47.717Z,98779.88
2023-03-20T19:23:01.152Z,98772.05
2023-03-20T19:26:21.917Z,98772.22
2023-03-20T19:29:34.201Z,98769.84
2023-03-20T19:32:46.418Z,98769.84
2023-03-20T19:36:03.340Z,98773.80
2023-03-20T19:39:16.876Z,98770.22
2023-03-20T19:43:00.865Z,98776.55
2023-03-20T19:45:45.698Z,98774.65
2023-03-20T19:48:57.997Z,98778.89
2023-03-20T19:52:10.880Z,98770.70
2023-03-20T19:55:23.518Z,98780.25
2023-03-20T19:58:35.748Z,98778.34
2023-03-20T20:01:47.960Z,98781.72
2023-03-20T20:05:00.573Z,98779.81
2023-03-20T20:08:28.365Z,98779.25
2023-03-20T20:11:29.290Z,98783.88
2023-03-20T20:14:41.668Z,98777.59
2023-03-20T20:17:54.993Z,98775.78
2023-03-20T20:24:22.040Z,98770.90
2023-03-20T20:27:34.716Z,98770.90
2023-03-20T20:30:47.774Z,98771.87
2023-03-20T20:34:51.096Z,98762.92
2023-03-20T20:40:33.413Z,98757.28
2023-03-20T20:44:14.476Z,98762.77
2023-03-20T20:47:00.588Z,98765.27
2023-03-20T20:50:15.194Z,98754.94
2023-03-20T20:53:27.230Z,98765.05
2023-03-20T20:56:39.417Z,98759.41
2023-03-20T20:59:53.671Z,98761.11
2023-03-20T21:03:06.082Z,98763.89
2023-03-20T21:06:18.305Z,98763.36
2023-03-20T21:09:30.485Z,98767.02
2023-03-20T21:12:58.686Z,98765.64
2023-03-20T21:16:06.438Z,98767.30
2023-03-20T21:19:19.423Z,98759.47
2023-03-20T21:22:34.112Z,98765.13
2023-03-20T21:25:47.748Z,98770.22
2023-03-20T21:29:00.628Z,98778.47
2023-03-20T21:32:13.334Z,98772.30
2023-03-20T21:35:26.590Z,98770.23
2023-03-20T21:41:54.653Z,98776.47
2023-03-20T21:49:23.977Z,98774.42
2023-03-20T21:52:37.469Z,98774.16
2023-03-20T21:55:40.995Z,98774.88
2023-03-20T22:08:27.886Z,98788.59
2023-03-20T22:15:03.843Z,98790.82
2023-03-20T22:18:05.719Z,98794.47
2023-03-20T22:27:56.620Z,98785.26
2023-03-20T22:31:19.357Z,98795.03
2023-03-20T22:37:52.550Z,98795.33
2023-03-20T22:41:18.350Z,98793.63
2023-03-20T22:44:34.014Z,98798.54
2023-03-20T22:46:51.171Z,98801.89
2023-03-20T22:50:03.564Z,98795.59
2023-03-20T22:53:15.780Z,98806.50
2023-03-20T22:56:28.358Z,98801.89
2023-03-20T22:59:40.589Z,98805.11
2023-03-20T23:02:54.934Z,98799.80
2023-03-20T23:06:14.568Z,98803.16
2023-03-20T23:09:27.230Z,98807.61
2023-03-20T23:12:39.633Z,98809.27
2023-03-20T23:15:52.980Z,98799.91
2023-03-20T23:19:05.344Z,98806.91
2023-03-20T23:22:17.749Z,98803.27
2023-03-20T23:25:38.900Z,98803.16
2023-03-20T23:28:46.345Z,98797.55
2023-03-20T23:31:58.804Z,98794.75
2023-03-20T23:35:13.123Z,98791.39
2023-03-20T23:38:25.187Z,98781.22
2023-03-20T23:42:03.958Z,98789.59
2023-03-20T23:44:56.510Z,98777.72
2023-03-20T23:48:05.759Z,98773.13
2023-03-20T23:51:17.858Z,98771.69
2023-03-20T23:54:29.885Z,98778.81
2023-03-20T23:57:41.899Z,98775.16
